createdAt,value
2023-05-08T00:00:47.768Z,43.89
2023-05-08T00:01:50.352Z,44.11
2023-05-08T00:02:53.304Z,43.99
2023-05-08T00:03:56.087Z,43.75
2023-05-08T00:04:58.901Z,43.95
2023-05-08T00:06:06.026Z,43.73
2023-05-08T00:07:08.209Z,44.38
2023-05-08T00:08:11.877Z,43.89
2023-05-08T00:09:14.266Z,43.92
2023-05-08T00:10:16.847Z,44.17
2023-05-08T00:11:19.152Z,44.46
2023-05-08T00:12:22.198Z,44.09
2023-05-08T00:13:24.782Z,44.19
2023-05-08T00:14:27.123Z,44.17
2023-05-08T00:15:29.393Z,45.23
2023-05-08T00:16:37.197Z,44.90
2023-05-08T00:17:40.360Z,45.12
2023-05-08T00:18:42.661Z,44.55
2023-05-08T00:19:45.086Z,44.31
2023-05-08T00:20:47.684Z,44.63
2023-05-08T00:21:50.596Z,44.37
2023-05-08T00:22:54.931Z,44.19
2023-05-08T00:23:59.430Z,44.29
2023-05-08T00:25:03.795Z,44.58
2023-05-08T00:26:06.520Z,44.21
2023-05-08T00:27:14.003Z,44.10
2023-05-08T00:28:16.157Z,44.50
2023-05-08T00:29:18.489Z,46.11
2023-05-08T00:30:20.758Z,44.60
2023-05-08T00:31:23.522Z,44.07
2023-05-08T00:32:26.218Z,44.66
2023-05-08T00:33:28.964Z,44.53
2023-05-08T00:34:31.171Z,44.04
2023-05-08T00:35:33.403Z,44.66
2023-05-08T00:36:35.744Z,44.26
2023-05-08T00:37:39.747Z,44.17
2023-05-08T00:38:42.066Z,44.78
2023-05-08T00:39:44.823Z,44.28
2023-05-08T00:40:46.938Z,44.08
2023-05-08T00:41:49.860Z,44.67
2023-05-08T00:42:52.911Z,44.83
2023-05-08T00:43:55.045Z,44.31
2023-05-08T00:44:57.053Z,44.27
2023-05-08T00:46:01.198Z,44.73
2023-05-08T00:47:04.227Z,44.86
2023-05-08T00:48:07.304Z,44.67
2023-05-08T00:49:12.823Z,44.94
2023-05-08T00:50:16.132Z,45.24
2023-05-08T00:51:18.472Z,44.88
2023-05-08T00:52:21.052Z,45.91
2023-05-08T00:53:25.280Z,46.59
2023-05-08T00:54:28.338Z,44.97
2023-05-08T00:55:32.287Z,44.93
2023-05-08T00:56:36.502Z,45.11
2023-05-08T00:57:40.254Z,45.20
2023-05-08T00:58:44.103Z,45.95
2023-05-08T00:59:47.662Z,46.71
2023-05-08T01:00:52.911Z,45.03
2023-05-08T01:01:55.331Z,45.03
2023-05-08T01:03:00.885Z,45.11
2023-05-08T01:04:04.027Z,45.28
2023-05-08T01:05:07.084Z,45.28
2023-05-08T01:06:10.797Z,45.20
2023-05-08T01:07:13.254Z,45.40
2023-05-08T01:08:15.569Z,45.37
2023-05-08T01:09:18.081Z,45.45
2023-05-08T01:10:20.312Z,45.36
2023-05-08T01:11:32.955Z,45.92
2023-05-08T01:12:47.764Z,45.34
2023-05-08T01:14:06.460Z,45.24
2023-05-08T01:15:18.162Z,45.39
2023-05-08T01:16:30.311Z,45.06
2023-05-08T01:17:39.586Z,45.39
2023-05-08T01:18:54.690Z,45.56
2023-05-08T01:20:20.549Z,45.40
2023-05-08T01:21:29.532Z,45.49
2023-05-08T01:23:03.193Z,45.60
2023-05-08T01:24:21.448Z,45.54
2023-05-08T01:25:48.180Z,45.57
2023-05-08T01:27:03.294Z,45.45
2023-05-08T01:28:29.065Z,45.58
2023-05-08T01:29:49.531Z,45.93
2023-05-08T01:31:18.621Z,45.98
2023-05-08T01:32:42.455Z,45.86
2023-05-08T01:33:55.474Z,45.93
2023-05-08T01:36:48.194Z,46.36
2023-05-08T01:38:09.210Z,45.98
2023-05-08T01:39:20.560Z,45.98
2023-05-08T01:40:38.351Z,45.11
2023-05-08T01:41:44.241Z,45.10
2023-05-08T01:42:49.952Z,45.08
2023-05-08T01:43:58.567Z,45.16
2023-05-08T01:45:04.521Z,45.30
2023-05-08T01:46:11.715Z,45.22
2023-05-08T01:47:17.549Z,45.38
2023-05-08T01:48:29.614Z,45.42
2023-05-08T01:49:38.548Z,45.38
2023-05-08T01:50:45.114Z,45.57
2023-05-08T01:51:52.011Z,45.46
2023-05-08T01:53:00.795Z,45.36
2023-05-08T01:54:08.763Z,45.39
2023-05-08T01:55:20.051Z,45.56
2023-05-08T01:56:24.903Z,45.60
2023-05-08T01:57:30.676Z,45.51
2023-05-08T01:58:35.529Z,45.57
2023-05-08T01:59:40.569Z,45.82
2023-05-08T02:00:46.766Z,45.47
2023-05-08T02:01:52.451Z,46.00
2023-05-08T02:02:58.314Z,46.76
2023-05-08T02:04:03.231Z,46.58
2023-05-08T02:05:08.386Z,45.83
2023-05-08T02:06:16.195Z,46.08
2023-05-08T02:07:25.379Z,46.26
2023-05-08T02:08:31.427Z,45.88
2023-05-08T02:09:35.080Z,45.75
2023-05-08T02:10:38.718Z,45.96
2023-05-08T02:11:44.056Z,47.04
2023-05-08T02:12:47.925Z,46.60
2023-05-08T02:13:52.259Z,46.48
2023-05-08T02:14:56.076Z,46.45
2023-05-08T02:16:00.934Z,46.10
2023-05-08T02:17:05.692Z,46.02
2023-05-08T02:18:09.235Z,45.81
2023-05-08T02:19:13.518Z,45.91
2023-05-08T02:20:16.984Z,45.95
2023-05-08T02:21:21.808Z,46.21
2023-05-08T02:22:25.751Z,46.24
2023-05-08T02:23:29.401Z,45.34
2023-05-08T02:24:35.040Z,46.33
2023-05-08T02:25:38.704Z,46.42
2023-05-08T02:26:43.621Z,46.45
2023-05-08T02:27:49.014Z,45.71
2023-05-08T02:28:55.687Z,45.56
2023-05-08T02:30:00.078Z,45.71
2023-05-08T02:31:05.556Z,46.16
2023-05-08T02:32:10.503Z,46.13
2023-05-08T02:33:15.484Z,46.23
2023-05-08T02:34:19.827Z,46.24
2023-05-08T02:35:24.004Z,45.51
2023-05-08T02:36:28.353Z,46.53
2023-05-08T02:37:34.212Z,46.59
2023-05-08T02:38:39.274Z,48.26
2023-05-08T02:39:44.554Z,46.42
2023-05-08T02:40:53.324Z,46.58
2023-05-08T02:41:56.779Z,45.83
2023-05-08T02:42:59.555Z,46.58
2023-05-08T02:44:03.527Z,46.15
2023-05-08T02:45:07.510Z,45.85
2023-05-08T02:46:14.092Z,45.93
2023-05-08T02:47:22.971Z,46.88
2023-05-08T02:48:35.425Z,46.87
2023-05-08T02:49:50.492Z,45.93
2023-05-08T02:50:56.999Z,47.14
2023-05-08T02:52:31.935Z,45.63
2023-05-08T02:53:37.506Z,46.46
2023-05-08T02:54:43.797Z,45.82
2023-05-08T02:55:54.602Z,45.77
2023-05-08T02:57:03.747Z,45.30
2023-05-08T02:58:12.802Z,45.05
2023-05-08T02:59:18.622Z,45.13
2023-05-08T03:00:24.765Z,45.53
2023-05-08T03:02:44.808Z,45.36
2023-05-08T03:04:03.687Z,46.27
2023-05-08T03:05:32.513Z,44.76
2023-05-08T03:06:38.961Z,45.13
2023-05-08T03:07:45.400Z,45.84
2023-05-08T03:08:50.230Z,45.37
2023-05-08T03:09:59.183Z,45.12
2023-05-08T03:11:05.768Z,44.95
2023-05-08T03:12:11.797Z,45.12
2023-05-08T03:13:16.507Z,45.44
2023-05-08T03:14:22.419Z,45.27
2023-05-08T03:15:34.104Z,44.95
2023-05-08T03:16:39.319Z,46.03
2023-05-08T03:17:45.570Z,45.75
2023-05-08T03:18:57.343Z,45.02
2023-05-08T03:20:08.518Z,44.75
2023-05-08T03:21:13.108Z,44.63
2023-05-08T03:22:18.020Z,45.86
2023-05-08T03:23:23.222Z,44.71
2023-05-08T03:24:28.141Z,44.92
2023-05-08T03:25:33.551Z,45.25
2023-05-08T03:26:36.862Z,45.94
2023-05-08T03:27:40.557Z,44.95
2023-05-08T03:28:43.260Z,44.48
2023-05-08T03:29:46.567Z,44.99
2023-05-08T03:30:51.602Z,44.84
2023-05-08T03:31:56.066Z,44.22
2023-05-08T03:32:59.398Z,44.64
2023-05-08T03:34:02.633Z,44.48
2023-05-08T03:35:07.807Z,44.66
2023-05-08T03:36:11.275Z,44.43
2023-05-08T03:37:13.626Z,44.76
2023-05-08T03:38:16.730Z,44.87
2023-05-08T03:39:19.391Z,45.37
2023-05-08T03:40:21.959Z,46.49
2023-05-08T03:41:25.253Z,45.18
2023-05-08T03:42:31.004Z,45.09
2023-05-08T03:43:40.051Z,44.81
2023-05-08T03:44:43.021Z,45.07
2023-05-08T03:45:46.023Z,44.69
2023-05-08T03:46:50.398Z,45.06
2023-05-08T03:47:53.528Z,44.98
2023-05-08T03:48:59.744Z,45.08
2023-05-08T03:50:03.044Z,46.31
2023-05-08T03:51:05.526Z,45.16
2023-05-08T03:52:10.975Z,45.11
2023-05-08T03:53:14.104Z,44.85
2023-05-08T03:54:17.585Z,44.77
2023-05-08T03:55:21.005Z,45.15
2023-05-08T03:56:25.302Z,45.51
2023-05-08T03:57:33.979Z,45.35
2023-05-08T03:58:52.154Z,44.87
2023-05-08T04:00:01.180Z,45.24
2023-05-08T04:01:25.095Z,44.64
2023-05-08T04:02:38.805Z,44.56
2023-05-08T04:04:02.806Z,45.95
2023-05-08T04:05:12.052Z,44.64
2023-05-08T04:06:18.543Z,44.21
2023-05-08T04:08:53.388Z,44.32
2023-05-08T04:10:08.595Z,44.41
2023-05-08T04:11:27.319Z,44.42
2023-05-08T04:13:06.701Z,44.24
2023-05-08T04:14:14.968Z,44.00
2023-05-08T04:15:20.938Z,43.76
2023-05-08T04:16:26.839Z,43.55
2023-05-08T04:19:03.523Z,43.85
2023-05-08T04:20:11.672Z,43.76
2023-05-08T04:21:18.340Z,44.17
2023-05-08T04:22:24.588Z,44.36
2023-05-08T04:23:31.244Z,44.23
2023-05-08T04:25:49.130Z,44.17
2023-05-08T04:26:52.131Z,44.10
2023-05-08T04:27:56.976Z,44.01
2023-05-08T04:28:59.755Z,43.94
2023-05-08T04:30:02.636Z,44.30
2023-05-08T04:31:08.090Z,43.93
2023-05-08T04:32:12.066Z,43.62
2023-05-08T04:33:17.720Z,43.72
2023-05-08T04:34:20.595Z,43.46
2023-05-08T04:35:23.535Z,43.38
2023-05-08T04:36:28.889Z,43.54
2023-05-08T04:37:31.776Z,43.00
2023-05-08T04:38:37.261Z,43.74
2023-05-08T04:39:43.138Z,44.03
2023-05-08T04:40:45.349Z,43.88
2023-05-08T04:41:48.368Z,44.17
2023-05-08T04:42:51.579Z,44.10
2023-05-08T04:43:54.334Z,43.63
2023-05-08T04:44:56.545Z,44.16
2023-05-08T04:45:59.060Z,43.66
2023-05-08T04:47:01.828Z,44.38
2023-05-08T04:48:05.265Z,44.02
2023-05-08T04:49:08.539Z,43.46
2023-05-08T04:50:11.574Z,43.99
2023-05-08T04:51:13.957Z,44.24
2023-05-08T04:52:16.379Z,43.43
2023-05-08T04:53:19.190Z,43.28
2023-05-08T04:54:21.382Z,44.24
2023-05-08T04:55:23.911Z,43.13
2023-05-08T04:56:28.814Z,43.56
2023-05-08T04:57:31.182Z,42.74
2023-05-08T04:58:33.764Z,43.21
2023-05-08T04:59:36.259Z,42.52
2023-05-08T05:00:39.633Z,42.35
2023-05-08T05:01:42.660Z,43.25
2023-05-08T05:02:45.184Z,42.29
2023-05-08T05:03:47.506Z,41.22
2023-05-08T05:04:50.693Z,41.68
2023-05-08T05:06:01.098Z,41.53
2023-05-08T05:07:04.254Z,41.82
2023-05-08T05:08:08.346Z,41.83
2023-05-08T05:09:11.288Z,40.80
2023-05-08T05:10:14.445Z,41.00
2023-05-08T05:11:16.788Z,40.84
2023-05-08T05:12:20.374Z,41.29
2023-05-08T05:13:22.974Z,41.26
2023-05-08T05:14:26.106Z,41.10
2023-05-08T05:15:28.623Z,41.25
2023-05-08T05:16:31.818Z,41.06
2023-05-08T05:17:34.680Z,41.20
2023-05-08T05:18:37.821Z,41.21
2023-05-08T05:19:40.138Z,40.63
2023-05-08T05:20:42.905Z,40.63
2023-05-08T05:21:45.445Z,40.39
2023-05-08T05:22:48.059Z,40.30
2023-05-08T05:23:50.469Z,40.12
2023-05-08T05:24:52.879Z,39.57
2023-05-08T05:25:55.395Z,39.55
2023-05-08T05:26:58.516Z,39.78
2023-05-08T05:28:01.486Z,39.83
2023-05-08T05:29:04.813Z,39.56
2023-05-08T05:30:08.712Z,39.76
2023-05-08T05:31:13.993Z,39.55
2023-05-08T05:32:18.050Z,39.81
2023-05-08T05:33:20.649Z,39.61
2023-05-08T05:34:22.978Z,39.93
2023-05-08T05:35:25.982Z,40.03
2023-05-08T05:36:28.907Z,40.41
2023-05-08T05:37:31.206Z,40.09
2023-05-08T05:38:33.690Z,39.62
2023-05-08T05:39:38.363Z,39.21
2023-05-08T05:40:42.072Z,39.03
2023-05-08T05:41:44.407Z,38.76
2023-05-08T05:42:50.729Z,38.96
2023-05-08T05:43:53.185Z,39.32
2023-05-08T05:44:58.607Z,39.09
2023-05-08T05:46:05.587Z,39.05
2023-05-08T05:47:10.558Z,38.77
2023-05-08T05:48:13.666Z,38.84
2023-05-08T05:49:16.576Z,38.81
2023-05-08T05:50:20.777Z,39.08
2023-05-08T05:51:23.146Z,39.02
2023-05-08T05:52:26.530Z,38.95
2023-05-08T05:53:29.001Z,38.92
2023-05-08T05:54:31.317Z,38.86
2023-05-08T05:55:34.922Z,39.00
2023-05-08T05:56:37.561Z,38.58
2023-05-08T05:57:40.299Z,38.75
2023-05-08T05:58:44.909Z,38.98
2023-05-08T05:59:48.329Z,38.87
2023-05-08T06:00:52.000Z,38.97
2023-05-08T06:01:54.368Z,38.78
2023-05-08T06:02:58.367Z,38.75
2023-05-08T06:04:02.430Z,38.75
2023-05-08T06:05:05.452Z,38.99
2023-05-08T06:06:08.014Z,39.06
2023-05-08T06:07:10.227Z,38.77
2023-05-08T06:08:12.846Z,38.96
2023-05-08T06:09:15.275Z,39.07
2023-05-08T06:10:19.683Z,39.26
2023-05-08T06:11:22.454Z,38.81
2023-05-08T06:12:24.972Z,39.17
2023-05-08T06:13:28.682Z,39.41
2023-05-08T06:14:31.484Z,41.32
2023-05-08T06:15:34.578Z,40.88
2023-05-08T06:16:37.403Z,40.88
2023-05-08T06:17:40.953Z,39.62
2023-05-08T06:18:43.044Z,41.67
2023-05-08T06:19:53.520Z,40.73
2023-05-08T06:20:59.246Z,41.01
2023-05-08T06:22:02.792Z,39.04
2023-05-08T06:23:05.478Z,39.45
2023-05-08T06:24:07.931Z,38.91
2023-05-08T06:25:11.339Z,39.43
2023-05-08T06:26:14.351Z,38.67
2023-05-08T06:27:16.619Z,38.68
2023-05-08T06:28:19.432Z,38.56
2023-05-08T06:29:22.174Z,38.82
2023-05-08T06:30:24.986Z,40.35
2023-05-08T06:31:28.096Z,38.79
2023-05-08T06:32:30.905Z,40.24
2023-05-08T06:33:34.425Z,42.25
2023-05-08T06:34:37.079Z,38.81
2023-05-08T06:35:39.292Z,37.98
2023-05-08T06:36:42.725Z,39.11
2023-05-08T06:37:47.037Z,38.96
2023-05-08T06:38:49.397Z,38.38
2023-05-08T06:40:03.956Z,39.44
2023-05-08T06:40:56.556Z,37.89
2023-05-08T06:41:59.045Z,37.81
2023-05-08T06:43:03.445Z,41.56
2023-05-08T06:44:05.762Z,41.56
2023-05-08T06:45:09.064Z,38.29
2023-05-08T06:46:11.842Z,37.51
2023-05-08T06:47:14.031Z,42.73
2023-05-08T06:48:16.481Z,43.42
2023-05-08T06:49:18.988Z,39.61
2023-05-08T06:50:21.367Z,37.55
2023-05-08T06:51:23.592Z,38.51
2023-05-08T06:52:27.077Z,40.66
2023-05-08T06:53:29.378Z,41.57
2023-05-08T06:54:31.585Z,39.40
2023-05-08T06:55:34.476Z,41.34
2023-05-08T06:56:36.904Z,39.42
2023-05-08T06:57:40.176Z,38.16
2023-05-08T06:58:46.268Z,38.88
2023-05-08T06:59:47.372Z,37.28
2023-05-08T07:00:49.928Z,38.01
2023-05-08T07:01:52.278Z,37.29
2023-05-08T07:02:54.832Z,37.22
2023-05-08T07:03:57.231Z,36.56
2023-05-08T07:04:59.795Z,36.86
2023-05-08T07:06:02.336Z,36.66
2023-05-08T07:07:06.295Z,36.48
2023-05-08T07:08:09.068Z,36.36
2023-05-08T07:09:13.480Z,39.39
2023-05-08T07:10:18.560Z,36.76
2023-05-08T07:11:21.404Z,36.96
2023-05-08T07:12:23.881Z,38.72
2023-05-08T07:13:26.163Z,40.27
2023-05-08T07:14:28.735Z,36.85
2023-05-08T07:15:32.174Z,36.44
2023-05-08T07:16:35.850Z,36.15
2023-05-08T07:17:38.159Z,36.15
2023-05-08T07:18:40.876Z,36.29
2023-05-08T07:19:44.640Z,36.08
2023-05-08T07:20:47.427Z,36.19
2023-05-08T07:21:54.767Z,36.17
2023-05-08T07:22:58.732Z,36.18
2023-05-08T07:24:09.886Z,35.92
2023-05-08T07:25:16.206Z,36.17
2023-05-08T07:26:21.005Z,36.52
2023-05-08T07:27:23.921Z,36.55
2023-05-08T07:28:27.305Z,36.30
2023-05-08T07:29:29.790Z,36.08
2023-05-08T07:30:33.191Z,35.87
2023-05-08T07:31:38.811Z,35.70
2023-05-08T07:32:41.139Z,35.97
2023-05-08T07:33:47.858Z,35.48
2023-05-08T07:34:50.211Z,36.10
2023-05-08T07:35:52.843Z,35.95
2023-05-08T07:36:55.343Z,35.67
2023-05-08T07:37:59.203Z,35.48
2023-05-08T07:39:02.096Z,35.50
2023-05-08T07:40:06.590Z,35.79
2023-05-08T07:41:09.705Z,36.02
2023-05-08T07:42:12.666Z,36.44
2023-05-08T07:43:16.690Z,36.27
2023-05-08T07:44:19.599Z,35.94
2023-05-08T07:45:21.902Z,35.31
2023-05-08T07:46:24.870Z,36.28
2023-05-08T07:47:28.869Z,35.94
2023-05-08T07:48:31.159Z,36.45
2023-05-08T07:49:33.326Z,35.88
2023-05-08T07:50:38.067Z,35.67
2023-05-08T07:51:41.424Z,35.94
2023-05-08T07:52:44.050Z,35.68
2023-05-08T07:53:50.068Z,35.29
2023-05-08T07:54:52.344Z,35.07
2023-05-08T07:55:55.645Z,35.06
2023-05-08T07:56:59.148Z,35.23
2023-05-08T07:58:02.133Z,35.18
2023-05-08T07:59:04.454Z,34.64
2023-05-08T08:00:09.885Z,34.63
2023-05-08T08:01:20.665Z,34.56
2023-05-08T08:02:23.509Z,34.27
2023-05-08T08:03:25.971Z,34.43
2023-05-08T08:04:28.465Z,34.00
2023-05-08T08:05:30.864Z,34.38
2023-05-08T08:06:33.028Z,33.88
2023-05-08T08:07:35.546Z,33.88
2023-05-08T08:08:39.550Z,33.46
2023-05-08T08:09:41.881Z,33.54
2023-05-08T08:10:44.233Z,34.05
2023-05-08T08:11:46.780Z,33.66
2023-05-08T08:12:49.030Z,33.97
2023-05-08T08:13:51.409Z,33.84
2023-05-08T08:14:54.134Z,33.62
2023-05-08T08:15:56.634Z,33.46
2023-05-08T08:17:01.014Z,34.06
2023-05-08T08:18:03.880Z,33.83
2023-05-08T08:19:06.294Z,33.72
2023-05-08T08:20:09.378Z,33.71
2023-05-08T08:21:11.726Z,33.58
2023-05-08T08:22:14.359Z,33.41
2023-05-08T08:23:16.766Z,32.79
2023-05-08T08:24:19.211Z,32.94
2023-05-08T08:25:21.900Z,32.95
2023-05-08T08:26:24.691Z,32.59
2023-05-08T08:27:27.008Z,32.58
2023-05-08T08:28:29.948Z,32.58
2023-05-08T08:29:32.264Z,32.88
2023-05-08T08:30:35.982Z,32.94
2023-05-08T08:31:39.132Z,32.82
2023-05-08T08:32:41.832Z,32.36
2023-05-08T08:33:44.119Z,34.26
2023-05-08T08:34:46.323Z,35.15
2023-05-08T08:35:48.749Z,34.08
2023-05-08T08:36:51.077Z,34.18
2023-05-08T08:37:53.357Z,32.54
2023-05-08T08:38:55.698Z,33.72
2023-05-08T08:39:57.913Z,34.12
2023-05-08T08:41:00.252Z,32.34
2023-05-08T08:42:03.098Z,31.04
2023-05-08T08:43:05.380Z,32.41
2023-05-08T08:44:07.727Z,32.31
2023-05-08T08:45:10.965Z,31.77
2023-05-08T08:46:15.251Z,32.18
2023-05-08T08:47:21.130Z,31.69
2023-05-08T08:48:28.107Z,31.64
2023-05-08T08:49:40.831Z,31.19
2023-05-08T08:50:46.808Z,31.08
2023-05-08T08:51:57.801Z,33.97
2023-05-08T08:53:08.285Z,31.46
2023-05-08T08:54:13.516Z,31.66
2023-05-08T08:55:18.057Z,31.11
2023-05-08T08:56:24.457Z,36.43
2023-05-08T08:57:30.088Z,32.88
2023-05-08T08:58:39.296Z,31.81
2023-05-08T08:59:44.354Z,31.69
2023-05-08T09:00:47.939Z,32.16
2023-05-08T09:01:53.964Z,30.31
2023-05-08T09:02:58.056Z,35.46
2023-05-08T09:04:01.355Z,31.52
2023-05-08T09:05:04.877Z,31.19
2023-05-08T09:06:07.944Z,31.30
2023-05-08T09:07:12.762Z,30.98
2023-05-08T09:08:15.178Z,30.30
2023-05-08T09:09:18.551Z,30.85
2023-05-08T09:10:27.253Z,30.94
2023-05-08T09:11:30.838Z,30.21
2023-05-08T09:12:33.945Z,30.14
2023-05-08T09:13:36.683Z,29.74
2023-05-08T09:14:44.412Z,30.68
2023-05-08T09:15:48.751Z,29.79
2023-05-08T09:16:55.511Z,29.61
2023-05-08T09:17:59.112Z,29.27
2023-05-08T09:19:03.923Z,29.27
2023-05-08T09:20:08.631Z,29.69
2023-05-08T09:21:11.277Z,29.70
2023-05-08T09:22:14.281Z,29.69
2023-05-08T09:23:17.918Z,29.70
2023-05-08T09:24:21.331Z,31.64
2023-05-08T09:25:23.606Z,31.64
2023-05-08T09:26:37.633Z,28.92
2023-05-08T09:27:40.818Z,30.17
2023-05-08T09:28:43.754Z,30.74
2023-05-08T09:31:11.165Z,28.65
2023-05-08T09:32:17.445Z,28.32
2023-05-08T09:33:22.198Z,28.76
2023-05-08T09:34:28.606Z,29.05
2023-05-08T09:35:35.733Z,30.77
2023-05-08T09:36:41.531Z,29.52
2023-05-08T09:37:44.273Z,29.55
2023-05-08T09:38:46.457Z,28.67
2023-05-08T09:39:50.001Z,29.02
2023-05-08T09:41:09.167Z,29.13
2023-05-08T09:42:12.474Z,29.05
2023-05-08T09:43:18.699Z,28.48
2023-05-08T09:44:20.999Z,28.75
2023-05-08T09:45:31.941Z,28.19
2023-05-08T09:46:34.812Z,28.06
2023-05-08T09:47:38.859Z,28.48
2023-05-08T09:48:41.597Z,28.29
2023-05-08T09:50:05.800Z,28.36
2023-05-08T09:51:08.346Z,28.62
2023-05-08T09:52:14.192Z,28.17
2023-05-08T09:53:16.743Z,27.70
2023-05-08T09:54:19.403Z,29.15
2023-05-08T09:55:21.788Z,28.61
2023-05-08T09:56:33.029Z,27.33
2023-05-08T09:57:38.864Z,27.58
2023-05-08T09:58:44.403Z,27.45
2023-05-08T09:59:47.130Z,27.13
2023-05-08T10:00:50.380Z,27.78
2023-05-08T10:01:56.391Z,27.83
2023-05-08T10:03:03.067Z,27.83
2023-05-08T10:04:05.879Z,28.11
2023-05-08T10:05:30.362Z,28.70
2023-05-08T10:06:32.863Z,28.73
2023-05-08T10:07:38.412Z,27.94
2023-05-08T10:08:42.033Z,27.78
2023-05-08T10:09:50.903Z,27.67
2023-05-08T10:10:52.755Z,27.68
2023-05-08T10:11:55.506Z,27.55
2023-05-08T10:12:58.681Z,27.35
2023-05-08T10:14:01.048Z,27.80
2023-05-08T10:15:04.548Z,27.61
2023-05-08T10:16:09.755Z,28.03
2023-05-08T10:17:12.450Z,27.72
2023-05-08T10:18:17.685Z,27.02
2023-05-08T10:19:22.281Z,27.47
2023-05-08T10:20:28.232Z,27.47
2023-05-08T10:21:34.374Z,27.64
2023-05-08T10:22:37.704Z,26.98
2023-05-08T10:23:42.167Z,26.65
2023-05-08T10:24:47.115Z,27.16
2023-05-08T10:25:54.991Z,27.56
2023-05-08T10:27:14.049Z,27.85
2023-05-08T10:28:19.998Z,26.59
2023-05-08T10:29:43.599Z,26.82
2023-05-08T10:30:50.520Z,26.47
2023-05-08T10:31:57.075Z,27.00
2023-05-08T10:33:04.772Z,27.04
2023-05-08T10:34:10.717Z,27.00
2023-05-08T10:35:12.981Z,27.45
2023-05-08T10:36:17.764Z,27.62
2023-05-08T10:37:21.012Z,27.63
2023-05-08T10:38:26.167Z,27.31
2023-05-08T10:39:31.456Z,27.62
2023-05-08T10:40:34.066Z,27.59
2023-05-08T10:41:36.875Z,27.19
2023-05-08T10:42:40.436Z,26.99
2023-05-08T10:43:43.084Z,27.35
2023-05-08T10:44:47.685Z,27.09
2023-05-08T10:45:52.750Z,27.53
2023-05-08T10:46:58.714Z,27.20
2023-05-08T10:48:21.449Z,27.18
2023-05-08T10:49:42.580Z,27.31
2023-05-08T10:51:10.555Z,27.14
2023-05-08T10:52:36.775Z,26.79
2023-05-08T10:53:58.169Z,27.79
2023-05-08T10:55:19.155Z,27.76
2023-05-08T10:56:28.770Z,27.33
2023-05-08T10:57:31.556Z,27.29
2023-05-08T10:58:38.590Z,27.03
2023-05-08T10:59:46.332Z,27.06
2023-05-08T11:01:04.011Z,27.08
2023-05-08T11:02:08.317Z,27.23
2023-05-08T11:03:23.664Z,27.06
2023-05-08T11:04:23.030Z,27.28
2023-05-08T11:05:27.468Z,26.83
2023-05-08T11:06:48.236Z,26.99
2023-05-08T11:07:58.514Z,27.16
2023-05-08T11:09:02.478Z,26.79
2023-05-08T11:10:12.192Z,27.17
2023-05-08T11:11:25.987Z,27.39
2023-05-08T11:12:31.026Z,27.41
2023-05-08T11:15:06.930Z,27.36
2023-05-08T11:16:10.505Z,27.10
2023-05-08T11:17:13.708Z,27.40
2023-05-08T11:18:17.140Z,27.17
2023-05-08T11:19:21.122Z,27.75
2023-05-08T11:20:26.408Z,27.14
2023-05-08T11:21:29.590Z,27.03
2023-05-08T11:22:34.544Z,27.10
2023-05-08T11:23:37.196Z,27.35
2023-05-08T11:24:51.232Z,26.56
2023-05-08T11:26:05.305Z,27.03
2023-05-08T11:27:09.778Z,27.09
2023-05-08T11:28:13.292Z,26.26
2023-05-08T11:29:18.882Z,26.42
2023-05-08T11:30:24.944Z,26.06
2023-05-08T11:31:48.421Z,25.89
2023-05-08T11:32:59.344Z,25.70
2023-05-08T11:34:01.808Z,26.23
2023-05-08T11:35:08.562Z,26.07
2023-05-08T11:36:16.991Z,25.20
2023-05-08T11:37:21.815Z,24.76
2023-05-08T11:38:37.589Z,24.83
2023-05-08T11:39:40.141Z,24.74
2023-05-08T11:41:08.541Z,23.71
2023-05-08T11:42:29.767Z,23.71
2023-05-08T11:43:36.714Z,24.27
2023-05-08T11:44:39.532Z,23.38
2023-05-08T11:45:42.872Z,23.18
2023-05-08T11:46:55.120Z,23.18
2023-05-08T11:48:01.632Z,23.46
2023-05-08T11:49:04.100Z,23.56
2023-05-08T11:50:08.598Z,23.48
2023-05-08T11:51:12.933Z,23.74
2023-05-08T11:52:18.105Z,23.41
2023-05-08T11:53:20.759Z,22.78
2023-05-08T11:54:24.862Z,23.18
2023-05-08T11:55:27.264Z,22.90
2023-05-08T11:56:31.332Z,23.31
2023-05-08T11:57:34.102Z,22.11
2023-05-08T11:58:36.223Z,22.37
2023-05-08T11:59:41.411Z,23.25
2023-05-08T12:00:47.134Z,23.02
2023-05-08T12:02:04.451Z,22.51
2023-05-08T12:02:55.225Z,22.42
2023-05-08T12:04:09.366Z,23.02
2023-05-08T12:05:11.974Z,23.17
2023-05-08T12:06:14.841Z,22.29
2023-05-08T12:07:18.053Z,23.34
2023-05-08T12:08:20.730Z,22.09
2023-05-08T12:09:23.547Z,23.02
2023-05-08T12:10:26.059Z,22.69
2023-05-08T12:11:28.381Z,22.19
2023-05-08T12:12:39.297Z,22.38
2023-05-08T12:13:41.628Z,22.90
2023-05-08T12:14:44.191Z,22.66
2023-05-08T12:15:47.955Z,22.71
2023-05-08T12:16:51.833Z,21.84
2023-05-08T12:18:03.333Z,22.42
2023-05-08T12:19:12.751Z,22.32
2023-05-08T12:20:18.450Z,22.42
2023-05-08T12:21:21.445Z,21.99
2023-05-08T12:22:23.779Z,21.93
2023-05-08T12:23:30.265Z,21.72
2023-05-08T12:24:33.280Z,22.24
2023-05-08T12:25:38.444Z,22.18
2023-05-08T12:26:41.221Z,22.08
2023-05-08T12:27:44.550Z,21.98
2023-05-08T12:29:10.127Z,21.87
2023-05-08T12:30:15.295Z,21.35
2023-05-08T12:31:42.523Z,21.89
2023-05-08T12:33:04.036Z,22.57
2023-05-08T12:34:21.581Z,21.78
2023-05-08T12:35:27.052Z,21.67
2023-05-08T12:36:34.985Z,21.53
2023-05-08T12:37:38.698Z,21.79
2023-05-08T12:38:41.092Z,21.95
2023-05-08T12:39:45.375Z,22.25
2023-05-08T12:40:49.975Z,22.36
2023-05-08T12:41:54.716Z,22.32
2023-05-08T12:43:00.957Z,22.44
2023-05-08T12:44:03.140Z,22.33
2023-05-08T12:45:06.652Z,21.32
2023-05-08T12:46:13.145Z,21.82
2023-05-08T12:47:19.676Z,22.31
2023-05-08T12:48:22.312Z,22.11
2023-05-08T12:49:30.307Z,22.50
2023-05-08T12:50:38.710Z,22.34
2023-05-08T12:51:45.032Z,22.07
2023-05-08T12:52:49.309Z,23.09
2023-05-08T12:53:52.550Z,22.66
2023-05-08T12:54:54.945Z,22.66
2023-05-08T12:55:59.797Z,22.39
2023-05-08T12:58:19.940Z,21.54
2023-05-08T12:59:33.525Z,21.85
2023-05-08T13:00:41.427Z,22.09
2023-05-08T13:01:48.535Z,21.62
2023-05-08T13:02:55.207Z,22.04
2023-05-08T13:04:02.373Z,21.65
2023-05-08T13:05:06.305Z,21.79
2023-05-08T13:06:25.610Z,22.62
2023-05-08T13:07:32.312Z,23.35
2023-05-08T13:08:38.525Z,21.66
2023-05-08T13:09:44.964Z,22.07
2023-05-08T13:10:53.580Z,22.30
2023-05-08T13:11:56.120Z,22.43
2023-05-08T13:12:58.563Z,22.50
2023-05-08T13:14:02.102Z,22.07
2023-05-08T13:15:05.400Z,21.95
2023-05-08T13:16:08.598Z,22.33
2023-05-08T13:17:29.446Z,23.19
2023-05-08T13:18:50.532Z,22.82
2023-05-08T13:19:52.938Z,22.74
2023-05-08T13:20:55.738Z,23.17
2023-05-08T13:21:58.160Z,23.14
2023-05-08T13:23:01.764Z,22.83
2023-05-08T13:24:05.204Z,22.58
2023-05-08T13:25:08.645Z,23.53
2023-05-08T13:26:11.884Z,23.42
2023-05-08T13:27:15.186Z,22.50
2023-05-08T13:28:17.669Z,22.71
2023-05-08T13:29:21.478Z,22.37
2023-05-08T13:30:24.057Z,22.91
2023-05-08T13:31:26.316Z,22.27
2023-05-08T13:32:29.149Z,21.71
2023-05-08T13:33:31.500Z,21.69
2023-05-08T13:34:36.142Z,22.47
2023-05-08T13:35:39.168Z,22.03
2023-05-08T13:36:41.946Z,22.82
2023-05-08T13:37:44.196Z,22.76
2023-05-08T13:38:46.369Z,23.73
2023-05-08T13:39:48.589Z,23.45
2023-05-08T13:40:51.610Z,23.91
2023-05-08T13:41:53.953Z,23.99
2023-05-08T13:42:57.173Z,23.75
2023-05-08T13:43:59.441Z,24.39
2023-05-08T13:45:02.731Z,24.33
2023-05-08T13:46:06.824Z,24.64
2023-05-08T13:47:10.312Z,24.97
2023-05-08T13:48:13.138Z,24.68
2023-05-08T13:49:17.977Z,24.30
2023-05-08T13:50:21.106Z,24.75
2023-05-08T13:51:23.272Z,24.57
2023-05-08T13:52:25.788Z,24.34
2023-05-08T13:53:27.908Z,24.35
2023-05-08T13:54:29.914Z,24.13
2023-05-08T13:55:32.374Z,24.17
2023-05-08T13:56:34.988Z,24.05
2023-05-08T13:57:38.206Z,23.70
2023-05-08T13:58:40.471Z,23.19
2023-05-08T13:59:42.911Z,22.68
2023-05-08T14:00:45.323Z,22.71
2023-05-08T14:01:47.732Z,22.19
2023-05-08T14:02:52.996Z,22.04
2023-05-08T14:03:55.002Z,22.00
2023-05-08T14:04:57.637Z,21.84
2023-05-08T14:06:00.550Z,21.47
2023-05-08T14:07:02.955Z,20.59
2023-05-08T14:08:06.356Z,21.31
2023-05-08T14:09:08.648Z,21.00
2023-05-08T14:10:11.804Z,20.25
2023-05-08T14:11:14.003Z,20.13
2023-05-08T14:12:17.269Z,20.42
2023-05-08T14:13:20.360Z,20.70
2023-05-08T14:14:23.298Z,20.05